Stratford, WA

11:21 PM PDT on August 30, 2014 (GMT -0700)
Grant County International | Change Station
CLOSE
Current Station
Airport
Location: Moses Lake,
Elevation: 1184 ft
Nearby Weather Stations

Elev 1184 ft 47.21 °N, 119.32 °W | Updated 29 minutes ago

Overcast
Overcast
68 °F
Feels Like 68 °F
N
8
Wind Variable Wind from WSW

Today
High -- | Low -- °F
--% Chance of Precip.
Yesterday
High -- | Low -- °F
Precip. -- in
6:13 AM 7:40 PM
Waxing Crescent, 28% visible
Pressure 29.80 in
Visibility 10.0 miles
Clouds Overcast 8500 ft
Dew Point 50 °F
Humidity 52%
Rainfall 0.00 in
Snow Depth Not available.
UV 0 out of 12
Pollen 4.50 out of 12
Air Quality Not available.
Flu Activity Not available.
METAR KMWH 310552Z AUTO 24007KT 10SM OVC085 20/10 A2982 RMK AO2 SLP091 T02000100 10256 20200 51005

More Conditions Fewer Conditions

Pressure 29.80 in
Visibility 10.0 miles
Clouds Overcast 8500 ft
Dew Point 50 °F
Humidity 52%
Rainfall 0.00 in
Snow Depth Not available.
UV 0 out of 12
Pollen 4.50 out of 12
Air Quality Not available.
Flu Activity Not available.
METAR KMWH 310552Z AUTO 24007KT 10SM OVC085 20/10 A2982 RMK AO2 SLP091 T02000100 10256 20200 51005

More Conditions Fewer Conditions

10-Day Weather Forecast

Almanac

Astronomy

Aug. 30, 2014 Rise Set
Actual Time 6:13 AM PDT 7:40 PM PDT
Civil Twilight 5:41 AM PDT 8:12 PM PDT
Nautical Twilight 5:02 AM PDT 8:51 PM PDT
Astronomical Twilight 4:20 AM PDT 9:32 PM PDT
Moon 11:28 AM PDT (8/30) 9:55 PM PDT (8/30)
Length of Visible Light 14h 31m
Length of Day
13h 27m
Tomorrow will be 3m 16s shorter.
Waxing Crescent, 28% of the Moon is Illuminated
Aug 31
Waxing Crescent
Sep 2
First Quarter
Sep 8
Full
Sep 15
Last Quarter
Sep 24
New

Community

WunderPhotos

Upload Photos

1,748,801 photos uploaded!

Nearby

Snow Depth

Station Depth Elevation
Trough 0 in 5300 ft
Grouse Camp 0 in 5380 ft
Blewett Pass 0 in 4270 ft
Moses Mountain 1 in 5300 ft
Sasse Ridge 0 in 4200 ft

Earthquake Activity

City Distance Mag. Time & Date
No recent earthquake activity has been reported nearby.
Minimum magnitude displayed is 2.5.

Coastal Water Temperatures

Place Temperature
No Stations Reporting

Nearby Weather Stations